createdAt,value
2022-08-26T00:00:03.003Z,21.60
2022-08-26T00:01:03.089Z,21.60
2022-08-26T00:02:03.115Z,21.60
2022-08-26T00:03:03.160Z,21.60
2022-08-26T00:04:03.238Z,21.50
2022-08-26T00:05:03.309Z,21.50
2022-08-26T00:06:03.294Z,21.50
2022-08-26T00:07:03.297Z,21.50
2022-08-26T00:08:03.322Z,21.50
2022-08-26T00:09:03.430Z,21.50
2022-08-26T00:10:03.688Z,21.50
2022-08-26T00:11:02.806Z,21.50
2022-08-26T00:12:02.769Z,21.40
2022-08-26T00:13:02.867Z,21.40
2022-08-26T00:14:03.075Z,21.40
2022-08-26T00:15:03.088Z,21.40
2022-08-26T00:16:03.297Z,21.30
2022-08-26T00:17:03.253Z,21.30
2022-08-26T00:18:03.362Z,21.30
2022-08-26T00:19:03.355Z,21.30
2022-08-26T00:20:03.314Z,21.30
2022-08-26T00:21:06.159Z,21.30
2022-08-26T00:22:03.331Z,21.30
2022-08-26T00:23:03.334Z,21.20
2022-08-26T00:24:03.417Z,21.20
2022-08-26T00:25:03.388Z,21.20
2022-08-26T00:26:03.452Z,21.20
2022-08-26T00:27:03.484Z,21.20
2022-08-26T00:28:03.458Z,21.20
2022-08-26T00:29:03.537Z,21.20
2022-08-26T00:30:03.554Z,21.20
2022-08-26T00:31:02.694Z,21.20
2022-08-26T00:32:02.824Z,21.20
2022-08-26T00:33:02.916Z,21.10
2022-08-26T00:34:02.875Z,21.10
2022-08-26T00:35:02.993Z,21.10
2022-08-26T00:36:03.107Z,21.10
2022-08-26T00:37:03.129Z,21.10
2022-08-26T00:38:03.183Z,21.10
2022-08-26T00:39:03.163Z,21.10
2022-08-26T00:40:05.016Z,21.10
2022-08-26T00:41:03.338Z,21.10
2022-08-26T00:42:03.543Z,21.00
2022-08-26T00:43:03.541Z,21.00
2022-08-26T00:44:02.582Z,21.00
2022-08-26T00:45:02.769Z,21.00
2022-08-26T00:46:02.756Z,21.00
2022-08-26T00:47:02.875Z,21.00
2022-08-26T00:48:02.837Z,21.00
2022-08-26T00:49:02.837Z,20.90
2022-08-26T00:50:02.854Z,20.90
2022-08-26T00:51:02.788Z,20.90
2022-08-26T00:52:02.796Z,20.90
2022-08-26T00:53:02.762Z,20.90
2022-08-26T00:54:02.863Z,20.90
2022-08-26T00:55:02.872Z,20.90
2022-08-26T00:56:02.895Z,20.90
2022-08-26T00:57:03.023Z,20.80
2022-08-26T00:58:02.997Z,20.80
2022-08-26T00:59:03.085Z,20.80
2022-08-26T01:00:03.078Z,20.80
2022-08-26T01:01:03.124Z,20.80
2022-08-26T01:02:03.199Z,20.70
2022-08-26T01:03:03.180Z,20.70
2022-08-26T01:04:03.210Z,20.70
2022-08-26T01:05:03.308Z,20.70
2022-08-26T01:06:03.324Z,20.70
2022-08-26T01:07:03.268Z,20.70
2022-08-26T01:08:03.588Z,20.70
2022-08-26T01:09:03.400Z,20.60
2022-08-26T01:10:03.367Z,20.60
2022-08-26T01:11:03.412Z,20.60
2022-08-26T01:12:03.458Z,20.60
2022-08-26T01:13:03.491Z,20.60
2022-08-26T01:14:03.387Z,20.60
2022-08-26T01:15:03.429Z,20.50
2022-08-26T01:16:03.482Z,20.50
2022-08-26T01:17:03.498Z,20.50
2022-08-26T01:18:03.434Z,20.50
2022-08-26T01:19:03.512Z,20.50
2022-08-26T01:20:03.608Z,20.50
2022-08-26T01:21:02.647Z,20.50
2022-08-26T01:22:02.718Z,20.40
2022-08-26T01:23:03.197Z,20.40
2022-08-26T01:24:02.776Z,20.40
2022-08-26T01:25:03.393Z,20.40
2022-08-26T01:26:02.875Z,20.40
2022-08-26T01:27:02.938Z,20.30
2022-08-26T01:28:03.085Z,20.30
2022-08-26T01:29:03.127Z,20.30
2022-08-26T01:30:03.158Z,20.30
2022-08-26T01:31:03.167Z,20.30
2022-08-26T01:32:03.196Z,20.30
2022-08-26T01:33:03.352Z,20.20
2022-08-26T01:34:03.314Z,20.20
2022-08-26T01:35:03.400Z,20.20
2022-08-26T01:36:03.418Z,20.20
2022-08-26T01:37:03.383Z,20.20
2022-08-26T01:38:03.532Z,20.20
2022-08-26T01:39:02.665Z,20.20
2022-08-26T01:40:02.775Z,20.20
2022-08-26T01:41:02.608Z,20.10
2022-08-26T01:42:03.353Z,20.10
2022-08-26T01:43:02.710Z,20.10
2022-08-26T01:44:02.802Z,20.10
2022-08-26T01:45:02.905Z,20.10
2022-08-26T01:46:03.028Z,20.10
2022-08-26T01:47:02.945Z,20.10
2022-08-26T01:48:02.925Z,20.00
2022-08-26T01:49:02.966Z,20.00
2022-08-26T01:50:03.175Z,20.00
2022-08-26T01:51:03.090Z,20.00
2022-08-26T01:52:03.113Z,20.00
2022-08-26T01:53:03.105Z,20.00
2022-08-26T01:54:03.088Z,20.00
2022-08-26T01:55:03.183Z,20.00
2022-08-26T01:56:03.282Z,20.00
2022-08-26T01:57:03.237Z,20.00
2022-08-26T01:58:03.241Z,20.00
2022-08-26T01:59:03.359Z,20.00
2022-08-26T02:00:03.471Z,20.00
2022-08-26T02:01:03.589Z,19.90
2022-08-26T02:02:03.561Z,19.90
2022-08-26T02:03:03.599Z,20.00
2022-08-26T02:04:03.625Z,19.90
2022-08-26T02:05:03.569Z,19.90
2022-08-26T02:06:03.638Z,19.90
2022-08-26T02:07:02.701Z,19.90
2022-08-26T02:08:02.680Z,19.90
2022-08-26T02:09:02.725Z,19.90
2022-08-26T02:10:02.787Z,19.90
2022-08-26T02:11:02.857Z,19.90
2022-08-26T02:12:02.853Z,19.90
2022-08-26T02:13:02.898Z,19.90
2022-08-26T02:14:02.896Z,19.80
2022-08-26T02:15:02.971Z,19.80
2022-08-26T02:16:02.948Z,19.80
2022-08-26T02:17:02.892Z,19.80
2022-08-26T02:18:03.087Z,19.80
2022-08-26T02:19:03.119Z,19.80
2022-08-26T02:20:03.144Z,19.80
2022-08-26T02:21:03.161Z,19.70
2022-08-26T02:22:03.162Z,19.70
2022-08-26T02:23:03.253Z,19.70
2022-08-26T02:24:03.338Z,19.70
2022-08-26T02:25:03.314Z,19.70
2022-08-26T02:26:03.494Z,19.70
2022-08-26T02:27:03.439Z,19.70
2022-08-26T02:28:03.486Z,19.70
2022-08-26T02:29:03.467Z,19.70
2022-08-26T02:30:03.547Z,19.60
2022-08-26T02:31:02.799Z,19.60
2022-08-26T02:32:02.747Z,19.60
2022-08-26T02:33:02.755Z,19.60
2022-08-26T02:34:02.922Z,19.60
2022-08-26T02:35:02.919Z,19.60
2022-08-26T02:36:02.916Z,19.60
2022-08-26T02:37:02.905Z,19.60
2022-08-26T02:38:02.997Z,19.60
2022-08-26T02:39:03.032Z,19.60
2022-08-26T02:40:03.048Z,19.60
2022-08-26T02:41:03.007Z,19.50
2022-08-26T02:42:03.041Z,19.50
2022-08-26T02:43:03.078Z,19.50
2022-08-26T02:44:03.227Z,19.50
2022-08-26T02:45:03.142Z,19.50
2022-08-26T02:46:03.334Z,19.50
2022-08-26T02:47:03.417Z,19.50
2022-08-26T02:48:03.344Z,19.50
2022-08-26T02:49:03.310Z,19.50
2022-08-26T02:50:03.337Z,19.50
2022-08-26T02:51:03.452Z,19.50
2022-08-26T02:52:03.411Z,19.50
2022-08-26T02:53:03.446Z,19.50
2022-08-26T02:54:03.234Z,19.50
2022-08-26T02:55:03.264Z,19.40
2022-08-26T02:56:03.367Z,19.40
2022-08-26T02:57:03.375Z,19.40
2022-08-26T02:58:03.214Z,19.40
2022-08-26T02:59:03.224Z,19.40
2022-08-26T03:00:03.306Z,19.40
2022-08-26T03:01:04.833Z,19.40
2022-08-26T03:02:03.506Z,19.40
2022-08-26T03:03:03.457Z,19.40
2022-08-26T03:04:03.425Z,19.40
2022-08-26T03:05:03.508Z,19.40
2022-08-26T03:06:03.550Z,19.40
2022-08-26T03:07:02.714Z,19.40
2022-08-26T03:08:02.795Z,19.40
2022-08-26T03:09:02.956Z,19.40
2022-08-26T03:10:06.998Z,19.30
2022-08-26T03:11:03.249Z,19.30
2022-08-26T03:12:03.329Z,19.30
2022-08-26T03:13:05.031Z,19.30
2022-08-26T03:14:03.776Z,19.30
2022-08-26T03:15:03.524Z,19.30
2022-08-26T03:16:02.691Z,19.30
2022-08-26T03:17:02.836Z,19.30
2022-08-26T03:18:02.938Z,19.30
2022-08-26T03:19:02.898Z,19.30
2022-08-26T03:20:02.969Z,19.30
2022-08-26T03:21:03.019Z,19.30
2022-08-26T03:22:02.994Z,19.30
2022-08-26T03:23:03.135Z,19.30
2022-08-26T03:24:03.133Z,19.20
2022-08-26T03:25:03.264Z,19.30
2022-08-26T03:26:03.199Z,19.20
2022-08-26T03:27:05.962Z,19.20
2022-08-26T03:28:03.521Z,19.20
2022-08-26T03:29:03.533Z,19.20
2022-08-26T03:30:03.534Z,19.20
2022-08-26T03:31:03.597Z,19.20
2022-08-26T03:32:02.717Z,19.20
2022-08-26T03:33:02.884Z,19.20
2022-08-26T03:34:02.903Z,19.20
2022-08-26T03:35:02.903Z,19.20
2022-08-26T03:36:02.868Z,19.10
2022-08-26T03:37:02.968Z,19.10
2022-08-26T03:38:02.887Z,19.10
2022-08-26T03:39:02.959Z,19.10
2022-08-26T03:40:03.388Z,19.10
2022-08-26T03:41:03.355Z,19.10
2022-08-26T03:42:03.418Z,19.10
2022-08-26T03:43:03.472Z,19.10
2022-08-26T03:44:03.563Z,19.00
2022-08-26T03:45:03.588Z,19.00
2022-08-26T03:46:03.504Z,19.00
2022-08-26T03:47:03.577Z,19.00
2022-08-26T03:48:02.739Z,19.00
2022-08-26T03:49:02.731Z,19.00
2022-08-26T03:50:02.680Z,19.00
2022-08-26T03:51:03.090Z,19.00
2022-08-26T03:52:02.742Z,18.90
2022-08-26T03:53:02.774Z,18.90
2022-08-26T03:54:02.874Z,18.90
2022-08-26T03:55:02.992Z,18.90
2022-08-26T03:56:02.980Z,18.90
2022-08-26T03:57:02.993Z,18.90
2022-08-26T03:58:03.116Z,18.90
2022-08-26T03:59:03.218Z,18.90
2022-08-26T04:00:03.428Z,18.90
2022-08-26T04:01:03.402Z,18.90
2022-08-26T04:02:03.605Z,18.90
2022-08-26T04:03:03.693Z,18.90
2022-08-26T04:04:03.630Z,19.00
2022-08-26T04:05:02.620Z,18.90
2022-08-26T04:06:02.747Z,18.90
2022-08-26T04:07:02.729Z,18.90
2022-08-26T04:08:02.741Z,18.90
2022-08-26T04:09:02.760Z,18.90
2022-08-26T04:10:02.763Z,18.90
2022-08-26T04:11:02.824Z,18.90
2022-08-26T04:12:02.748Z,18.90
2022-08-26T04:13:02.820Z,18.90
2022-08-26T04:14:02.908Z,18.90
2022-08-26T04:15:02.985Z,18.90
2022-08-26T04:16:03.128Z,18.90
2022-08-26T04:17:03.145Z,18.90
2022-08-26T04:18:03.215Z,18.90
2022-08-26T04:19:03.202Z,18.90
2022-08-26T04:20:03.235Z,18.80
2022-08-26T04:21:03.387Z,18.80
2022-08-26T04:22:03.375Z,18.80
2022-08-26T04:23:03.444Z,18.80
2022-08-26T04:24:03.889Z,18.80
2022-08-26T04:25:03.679Z,18.80
2022-08-26T04:26:02.854Z,18.80
2022-08-26T04:27:02.948Z,18.80
2022-08-26T04:28:03.023Z,18.80
2022-08-26T04:29:02.935Z,18.80
2022-08-26T04:30:03.016Z,18.80
2022-08-26T04:31:03.210Z,18.80
2022-08-26T04:32:03.236Z,18.80
2022-08-26T04:33:03.330Z,18.80
2022-08-26T04:34:03.445Z,18.80
2022-08-26T04:35:03.360Z,18.80
2022-08-26T04:36:03.415Z,18.80
2022-08-26T04:37:03.549Z,18.80
2022-08-26T04:38:03.501Z,18.80
2022-08-26T04:39:02.705Z,18.80
2022-08-26T04:40:02.844Z,18.80
2022-08-26T04:41:02.865Z,18.80
2022-08-26T04:42:02.814Z,18.80
2022-08-26T04:43:02.853Z,18.80
2022-08-26T04:44:02.970Z,18.80
2022-08-26T04:45:05.726Z,18.80
2022-08-26T04:46:03.031Z,18.80
2022-08-26T04:47:03.127Z,18.80
2022-08-26T04:48:03.030Z,18.80
2022-08-26T04:49:03.156Z,18.80
2022-08-26T04:50:03.141Z,18.80
2022-08-26T04:51:03.197Z,18.80
2022-08-26T04:52:03.143Z,18.80
2022-08-26T04:53:03.142Z,18.80
2022-08-26T04:54:03.119Z,18.90
2022-08-26T04:55:03.211Z,18.90
2022-08-26T04:56:03.350Z,18.90
2022-08-26T04:57:03.363Z,18.90
2022-08-26T04:58:03.468Z,18.90
2022-08-26T04:59:02.745Z,18.90
2022-08-26T05:00:02.645Z,18.90
2022-08-26T05:01:02.750Z,19.00
2022-08-26T05:02:02.779Z,19.00
2022-08-26T05:03:02.800Z,19.00
2022-08-26T05:04:03.068Z,19.10
2022-08-26T05:05:02.931Z,19.10
2022-08-26T05:06:03.060Z,19.10
2022-08-26T05:07:03.175Z,19.20
2022-08-26T05:08:02.982Z,19.20
2022-08-26T05:09:03.009Z,19.30
2022-08-26T05:10:03.167Z,19.40
2022-08-26T05:11:03.240Z,19.40
2022-08-26T05:12:03.366Z,19.40
2022-08-26T05:13:03.455Z,19.50
2022-08-26T05:14:03.600Z,19.60
2022-08-26T05:15:03.617Z,19.70
2022-08-26T05:16:02.649Z,19.70
2022-08-26T05:17:02.747Z,19.80
2022-08-26T05:18:02.651Z,19.80
2022-08-26T05:19:02.720Z,19.90
2022-08-26T05:20:02.674Z,20.00
2022-08-26T05:21:02.839Z,20.00
2022-08-26T05:22:02.833Z,20.10
2022-08-26T05:23:02.997Z,20.20
2022-08-26T05:24:02.982Z,20.30
2022-08-26T05:25:03.038Z,20.30
2022-08-26T05:26:04.926Z,20.40
2022-08-26T05:27:03.195Z,20.50
2022-08-26T05:28:03.271Z,20.60
2022-08-26T05:29:03.260Z,20.70
2022-08-26T05:30:03.331Z,20.80
2022-08-26T05:31:03.387Z,20.80
2022-08-26T05:32:03.300Z,20.90
2022-08-26T05:33:03.390Z,21.00
2022-08-26T05:34:03.558Z,21.10
2022-08-26T05:35:03.328Z,21.20
2022-08-26T05:36:03.471Z,21.20
2022-08-26T05:37:03.517Z,21.30
2022-08-26T05:38:03.496Z,21.40
2022-08-26T05:39:03.549Z,21.50
2022-08-26T05:40:03.643Z,21.60
2022-08-26T05:41:02.761Z,21.70
2022-08-26T05:42:02.729Z,21.70
2022-08-26T05:43:02.737Z,21.80
2022-08-26T05:44:02.770Z,21.80
2022-08-26T05:45:02.807Z,21.90
2022-08-26T05:46:02.871Z,21.90
2022-08-26T05:47:02.867Z,22.00
2022-08-26T05:48:02.973Z,22.00
2022-08-26T05:49:03.096Z,22.00
2022-08-26T05:50:03.149Z,22.10
2022-08-26T05:51:03.261Z,22.10
2022-08-26T05:52:03.252Z,22.20
2022-08-26T05:53:03.344Z,22.20
2022-08-26T05:54:03.505Z,22.30
2022-08-26T05:55:03.393Z,22.40
2022-08-26T05:56:03.407Z,22.40
2022-08-26T05:57:03.529Z,22.50
2022-08-26T05:58:03.636Z,22.60
2022-08-26T05:59:03.533Z,22.70
2022-08-26T06:00:02.648Z,22.80
2022-08-26T06:01:02.792Z,22.80
2022-08-26T06:02:02.661Z,22.90
2022-08-26T06:03:02.856Z,23.00
2022-08-26T06:04:02.795Z,23.10
2022-08-26T06:05:02.805Z,23.10
2022-08-26T06:06:02.976Z,23.20
2022-08-26T06:07:02.959Z,23.30
2022-08-26T06:08:03.008Z,23.40
2022-08-26T06:09:02.974Z,23.50
2022-08-26T06:10:28.511Z,23.60
2022-08-26T06:11:03.093Z,23.60
2022-08-26T06:12:03.147Z,23.70
2022-08-26T06:13:09.459Z,23.80
2022-08-26T06:14:03.679Z,23.90
2022-08-26T06:15:04.013Z,23.90
2022-08-26T06:16:03.227Z,24.00
2022-08-26T06:17:03.128Z,24.10
2022-08-26T06:18:03.165Z,24.20
2022-08-26T06:19:03.146Z,24.20
2022-08-26T06:20:03.075Z,24.30
2022-08-26T06:21:03.182Z,24.40
2022-08-26T06:22:03.325Z,24.40
2022-08-26T06:23:03.274Z,24.50
2022-08-26T06:24:03.356Z,24.60
2022-08-26T06:25:03.322Z,24.60
2022-08-26T06:26:03.450Z,24.70
2022-08-26T06:27:03.482Z,24.80
2022-08-26T06:28:03.461Z,24.80
2022-08-26T06:29:03.500Z,24.90
2022-08-26T06:30:03.483Z,25.00
2022-08-26T06:31:03.621Z,25.00
2022-08-26T06:32:02.701Z,25.10
2022-08-26T06:33:02.747Z,25.20
2022-08-26T06:34:05.228Z,25.20
2022-08-26T06:35:02.620Z,25.30
2022-08-26T06:36:02.633Z,25.30
2022-08-26T06:37:02.858Z,25.30
2022-08-26T06:38:02.719Z,25.40
2022-08-26T06:39:02.860Z,25.40
2022-08-26T06:40:02.890Z,25.50
2022-08-26T06:41:02.821Z,25.50
2022-08-26T06:42:03.011Z,25.50
2022-08-26T06:43:02.903Z,25.60
2022-08-26T06:44:02.889Z,25.60
2022-08-26T06:45:02.922Z,25.70
2022-08-26T06:46:04.239Z,25.70
2022-08-26T06:47:03.009Z,25.70
2022-08-26T06:48:03.119Z,25.70
2022-08-26T06:49:03.202Z,25.80
2022-08-26T06:50:03.261Z,25.80
2022-08-26T06:51:03.321Z,25.80
2022-08-26T06:52:03.428Z,25.80
2022-08-26T06:53:03.409Z,25.90
2022-08-26T06:54:03.433Z,25.90
2022-08-26T06:55:03.481Z,25.90
2022-08-26T06:56:03.578Z,26.00
2022-08-26T06:57:02.643Z,26.00
2022-08-26T06:58:02.770Z,26.00
2022-08-26T06:59:02.825Z,26.10
2022-08-26T07:00:02.869Z,26.10
2022-08-26T07:01:09.202Z,26.20
2022-08-26T07:02:03.041Z,26.20
2022-08-26T07:03:02.974Z,26.30
2022-08-26T07:04:02.928Z,26.30
2022-08-26T07:05:02.973Z,26.40
2022-08-26T07:06:02.973Z,26.40
2022-08-26T07:07:03.003Z,26.50
2022-08-26T07:08:03.003Z,26.50
2022-08-26T07:09:03.298Z,26.60
2022-08-26T07:10:03.119Z,26.60
2022-08-26T07:11:03.038Z,26.60
2022-08-26T07:12:03.188Z,26.60
2022-08-26T07:13:03.213Z,26.70
2022-08-26T07:14:03.258Z,26.70
2022-08-26T07:15:03.278Z,26.70
2022-08-26T07:16:03.300Z,26.80
2022-08-26T07:17:03.505Z,26.80
2022-08-26T07:18:03.436Z,26.90
2022-08-26T07:19:03.552Z,26.90
2022-08-26T07:20:03.408Z,27.00
2022-08-26T07:21:03.344Z,27.00
2022-08-26T07:22:03.796Z,27.00
2022-08-26T07:23:03.415Z,27.00
2022-08-26T07:24:03.347Z,27.00
2022-08-26T07:25:03.450Z,27.10
2022-08-26T07:26:03.505Z,27.10
2022-08-26T07:27:03.670Z,27.10
2022-08-26T07:28:03.609Z,27.10
2022-08-26T07:29:03.640Z,27.10
2022-08-26T07:30:02.666Z,27.20
2022-08-26T07:31:02.859Z,27.20
2022-08-26T07:32:02.961Z,27.20
2022-08-26T07:33:02.918Z,27.30
2022-08-26T07:34:03.010Z,27.30
2022-08-26T07:35:02.963Z,27.30
2022-08-26T07:36:04.156Z,27.40
2022-08-26T07:37:03.012Z,27.40
2022-08-26T07:38:03.108Z,27.40
2022-08-26T07:39:03.172Z,27.40
2022-08-26T07:40:03.316Z,27.40
2022-08-26T07:41:03.291Z,27.40
2022-08-26T07:42:07.344Z,27.50
2022-08-26T07:43:03.402Z,27.50
2022-08-26T07:44:03.394Z,27.60
2022-08-26T07:45:03.577Z,27.60
2022-08-26T07:46:02.660Z,27.70
2022-08-26T07:47:02.621Z,27.70
2022-08-26T07:48:03.926Z,27.70
2022-08-26T07:49:02.716Z,27.80
2022-08-26T07:50:02.738Z,27.80
2022-08-26T07:51:02.806Z,27.80
2022-08-26T07:52:02.856Z,27.90
2022-08-26T07:53:02.847Z,27.90
2022-08-26T07:54:02.799Z,28.00
2022-08-26T07:55:02.852Z,28.00
2022-08-26T07:56:02.972Z,28.00
2022-08-26T07:57:05.071Z,28.00
2022-08-26T07:58:03.067Z,28.10
2022-08-26T07:59:03.172Z,28.10
2022-08-26T08:00:03.196Z,28.10
2022-08-26T08:01:03.263Z,28.20
2022-08-26T08:02:03.383Z,28.20
2022-08-26T08:03:03.423Z,28.30
2022-08-26T08:04:03.499Z,28.30
2022-08-26T08:05:03.735Z,28.40
2022-08-26T08:06:02.944Z,28.40
2022-08-26T08:07:02.950Z,28.50
2022-08-26T08:08:26.429Z,28.50
2022-08-26T08:09:02.953Z,28.50
2022-08-26T08:10:05.560Z,28.50
2022-08-26T08:11:02.890Z,28.50
2022-08-26T08:12:02.938Z,28.60
2022-08-26T08:13:02.912Z,28.60
2022-08-26T08:14:02.983Z,28.60
2022-08-26T08:15:03.067Z,28.70
2022-08-26T08:16:03.064Z,28.70
2022-08-26T08:17:03.376Z,28.70
2022-08-26T08:18:03.310Z,28.80
2022-08-26T08:19:03.701Z,28.80
2022-08-26T08:20:03.350Z,28.80
2022-08-26T08:21:11.084Z,28.90
2022-08-26T08:22:03.489Z,28.90
2022-08-26T08:23:03.483Z,29.00
2022-08-26T08:24:03.556Z,29.00
2022-08-26T08:25:03.539Z,29.00
2022-08-26T08:26:02.734Z,29.10
2022-08-26T08:27:03.713Z,29.10
2022-08-26T08:28:02.681Z,29.20
2022-08-26T08:29:02.734Z,29.20
2022-08-26T08:30:02.700Z,29.20
2022-08-26T08:31:02.662Z,29.20
2022-08-26T08:32:02.826Z,29.20
2022-08-26T08:33:02.741Z,29.20
2022-08-26T08:34:02.873Z,29.10
2022-08-26T08:35:02.981Z,29.10
2022-08-26T08:36:03.103Z,29.10
2022-08-26T08:37:04.384Z,29.10
2022-08-26T08:38:04.106Z,29.10
2022-08-26T08:39:03.165Z,29.10
2022-08-26T08:40:03.304Z,29.10
2022-08-26T08:41:03.456Z,29.10
2022-08-26T08:42:03.336Z,29.10
2022-08-26T08:43:03.398Z,29.20
2022-08-26T08:44:03.392Z,29.20
2022-08-26T08:45:03.394Z,29.20
2022-08-26T08:46:03.441Z,29.20
2022-08-26T08:47:03.457Z,29.20
2022-08-26T08:48:03.609Z,29.20
2022-08-26T08:49:02.654Z,29.20
2022-08-26T08:50:02.690Z,29.20
2022-08-26T08:51:02.774Z,29.20
2022-08-26T08:52:02.833Z,29.10
2022-08-26T08:53:02.829Z,29.10
2022-08-26T08:54:02.792Z,29.10
2022-08-26T08:55:02.891Z,29.10
2022-08-26T08:56:02.959Z,29.10
2022-08-26T08:57:03.057Z,29.10
2022-08-26T08:58:03.086Z,29.00
2022-08-26T08:59:03.137Z,29.00
2022-08-26T09:00:03.221Z,29.00
2022-08-26T09:01:03.171Z,29.00
2022-08-26T09:02:03.174Z,29.00
2022-08-26T09:03:03.242Z,29.00
2022-08-26T09:04:03.202Z,29.00
2022-08-26T09:05:03.443Z,29.00
2022-08-26T09:06:03.381Z,29.00
2022-08-26T09:07:03.619Z,29.00
2022-08-26T09:08:02.733Z,29.00
2022-08-26T09:09:02.830Z,29.00
2022-08-26T09:10:02.881Z,29.00
2022-08-26T09:11:03.110Z,29.00
2022-08-26T09:12:03.124Z,29.00
2022-08-26T09:13:03.172Z,29.10
2022-08-26T09:14:03.372Z,29.10
2022-08-26T09:15:03.323Z,29.10
2022-08-26T09:16:03.336Z,29.20
2022-08-26T09:17:03.466Z,29.20
2022-08-26T09:18:04.547Z,29.20
2022-08-26T09:19:03.556Z,29.20
2022-08-26T09:20:03.546Z,29.20
2022-08-26T09:21:03.640Z,29.20
2022-08-26T09:22:05.866Z,29.30
2022-08-26T09:23:02.690Z,29.30
2022-08-26T09:24:02.650Z,29.30
2022-08-26T09:25:02.702Z,29.30
2022-08-26T09:26:02.763Z,29.40
2022-08-26T09:27:02.792Z,29.40
2022-08-26T09:28:02.939Z,29.40
2022-08-26T09:29:02.888Z,29.40
2022-08-26T09:30:02.882Z,29.50
2022-08-26T09:31:03.572Z,29.50
2022-08-26T09:32:02.992Z,29.50
2022-08-26T09:33:02.896Z,29.50
2022-08-26T09:34:02.934Z,29.40
2022-08-26T09:35:03.047Z,29.40
2022-08-26T09:36:02.939Z,29.40
2022-08-26T09:37:04.623Z,29.40
2022-08-26T09:38:03.032Z,29.30
2022-08-26T09:39:03.169Z,29.30
2022-08-26T09:40:03.322Z,29.30
2022-08-26T09:41:03.394Z,29.30
2022-08-26T09:42:03.434Z,29.30
2022-08-26T09:43:03.468Z,29.30
2022-08-26T09:44:03.627Z,29.30
2022-08-26T09:45:03.593Z,29.30
2022-08-26T09:46:02.720Z,29.30
2022-08-26T09:47:02.879Z,29.30
2022-08-26T09:48:03.036Z,29.30
2022-08-26T09:49:02.858Z,29.40
2022-08-26T09:50:02.962Z,29.40
2022-08-26T09:51:03.020Z,29.40
2022-08-26T09:52:03.127Z,29.30
2022-08-26T09:53:03.109Z,29.30
2022-08-26T09:54:03.140Z,29.20
2022-08-26T09:55:03.396Z,29.20
2022-08-26T09:56:03.227Z,29.10
2022-08-26T09:57:03.398Z,29.10
2022-08-26T09:58:07.810Z,29.00
2022-08-26T09:59:03.606Z,29.00
2022-08-26T10:00:02.726Z,28.90
2022-08-26T10:01:02.701Z,28.90
2022-08-26T10:02:02.667Z,28.90
2022-08-26T10:03:02.757Z,28.90
2022-08-26T10:04:02.715Z,28.80
2022-08-26T10:05:04.442Z,28.90
2022-08-26T10:06:02.800Z,28.90
2022-08-26T10:07:02.926Z,28.90
2022-08-26T10:08:02.951Z,29.00
2022-08-26T10:09:05.642Z,29.10
2022-08-26T10:10:07.995Z,29.10
2022-08-26T10:11:03.132Z,29.20
2022-08-26T10:12:03.059Z,29.20
2022-08-26T10:13:03.139Z,29.20
2022-08-26T10:14:03.223Z,29.30
2022-08-26T10:15:03.245Z,29.30
2022-08-26T10:16:03.268Z,29.30
2022-08-26T10:17:03.484Z,29.30
2022-08-26T10:18:03.626Z,29.30
2022-08-26T10:19:02.643Z,29.40
2022-08-26T10:20:02.703Z,29.40
2022-08-26T10:21:02.730Z,29.50
2022-08-26T10:22:02.764Z,29.50
2022-08-26T10:23:03.001Z,29.50
2022-08-26T10:24:03.019Z,29.60
2022-08-26T10:25:03.001Z,29.60
2022-08-26T10:26:03.067Z,29.60
2022-08-26T10:27:03.254Z,29.60
2022-08-26T10:28:03.198Z,29.70
2022-08-26T10:29:03.397Z,29.70
2022-08-26T10:30:03.451Z,29.70
2022-08-26T10:31:03.502Z,29.70
2022-08-26T10:32:03.802Z,29.80
2022-08-26T10:33:03.496Z,29.80
2022-08-26T10:34:02.711Z,29.80
2022-08-26T10:35:02.932Z,29.80
2022-08-26T10:36:02.875Z,29.80
2022-08-26T10:37:10.875Z,29.90
2022-08-26T10:38:02.859Z,29.90
2022-08-26T10:39:02.897Z,29.90
2022-08-26T10:40:03.040Z,30.00
2022-08-26T10:41:02.966Z,30.00
2022-08-26T10:42:03.076Z,29.90
2022-08-26T10:43:05.950Z,29.90
2022-08-26T10:44:03.203Z,29.90
2022-08-26T10:45:03.227Z,29.90
2022-08-26T10:46:03.232Z,29.90
2022-08-26T10:47:03.323Z,29.90
2022-08-26T10:48:03.481Z,29.90
2022-08-26T10:49:03.415Z,29.90
2022-08-26T10:50:03.721Z,29.90
2022-08-26T10:51:03.189Z,30.00
2022-08-26T10:52:03.403Z,30.00
2022-08-26T10:53:03.634Z,30.00
2022-08-26T10:54:03.245Z,30.00
2022-08-26T10:55:03.090Z,30.00
2022-08-26T10:56:02.886Z,30.00
2022-08-26T10:57:03.008Z,29.90
2022-08-26T10:58:04.629Z,29.90
2022-08-26T10:59:03.284Z,29.90
2022-08-26T11:00:04.240Z,29.90
2022-08-26T11:01:03.360Z,29.80
2022-08-26T11:02:03.725Z,29.80
2022-08-26T11:03:03.514Z,29.90
2022-08-26T11:04:03.547Z,29.80
2022-08-26T11:05:03.638Z,29.80
2022-08-26T11:06:03.592Z,29.90
2022-08-26T11:07:03.576Z,29.90
2022-08-26T11:08:02.836Z,29.90
2022-08-26T11:09:02.850Z,29.90
2022-08-26T11:10:02.733Z,29.90
2022-08-26T11:11:02.792Z,30.00
2022-08-26T11:12:10.130Z,30.00
2022-08-26T11:13:03.055Z,30.00
2022-08-26T11:14:03.065Z,30.00
2022-08-26T11:15:03.148Z,30.10
2022-08-26T11:16:03.220Z,30.00
2022-08-26T11:17:03.328Z,30.10
2022-08-26T11:18:03.521Z,30.10
2022-08-26T11:19:03.428Z,30.10
2022-08-26T11:20:07.552Z,30.10
2022-08-26T11:21:03.653Z,30.10
2022-08-26T11:22:02.705Z,30.10
2022-08-26T11:23:02.736Z,30.10
2022-08-26T11:24:02.902Z,30.10
2022-08-26T11:25:03.034Z,30.10
2022-08-26T11:26:02.995Z,30.20
2022-08-26T11:27:03.079Z,30.20
2022-08-26T11:28:03.106Z,30.20
2022-08-26T11:29:03.256Z,30.20
2022-08-26T11:30:03.250Z,30.20
2022-08-26T11:31:03.338Z,30.10
2022-08-26T11:32:03.549Z,30.10
2022-08-26T11:33:03.559Z,30.10
2022-08-26T11:34:03.461Z,30.00
2022-08-26T11:35:03.553Z,30.00
2022-08-26T11:36:07.487Z,30.00
2022-08-26T11:37:02.720Z,30.00
2022-08-26T11:38:04.259Z,29.90
2022-08-26T11:39:02.903Z,29.90
2022-08-26T11:40:03.888Z,29.90
2022-08-26T11:41:03.328Z,29.80
2022-08-26T11:42:02.925Z,29.80
2022-08-26T11:43:02.945Z,29.80
2022-08-26T11:44:02.940Z,29.80
2022-08-26T11:45:04.855Z,29.70
2022-08-26T11:46:03.002Z,29.70
2022-08-26T11:47:03.041Z,29.70
2022-08-26T11:48:03.072Z,29.70
2022-08-26T11:49:03.004Z,29.70
2022-08-26T11:50:03.164Z,29.70
2022-08-26T11:51:03.361Z,29.70
2022-08-26T11:52:03.354Z,29.70
2022-08-26T11:53:03.369Z,29.70
2022-08-26T11:54:03.444Z,29.70
2022-08-26T11:55:03.519Z,29.80
2022-08-26T11:56:03.525Z,29.80
2022-08-26T11:57:06.017Z,29.80
2022-08-26T11:58:04.650Z,29.80
2022-08-26T11:59:02.616Z,29.90
2022-08-26T12:00:02.722Z,29.90
2022-08-26T12:01:03.486Z,29.90
2022-08-26T12:02:02.854Z,30.00
2022-08-26T12:03:03.044Z,30.00
2022-08-26T12:04:03.016Z,30.00
2022-08-26T12:05:03.002Z,30.00
2022-08-26T12:06:03.098Z,30.00
2022-08-26T12:07:03.033Z,29.90
2022-08-26T12:08:03.171Z,29.90
2022-08-26T12:09:03.183Z,29.90
2022-08-26T12:10:03.279Z,29.80
2022-08-26T12:11:03.330Z,29.80
2022-08-26T12:12:03.334Z,29.70
2022-08-26T12:13:03.519Z,29.70
2022-08-26T12:14:03.519Z,29.60
2022-08-26T12:15:02.713Z,29.60
2022-08-26T12:16:02.801Z,29.60
2022-08-26T12:17:02.788Z,29.50
2022-08-26T12:18:02.892Z,29.50
2022-08-26T12:19:02.966Z,29.50
2022-08-26T12:20:02.970Z,29.40
2022-08-26T12:21:02.969Z,29.40
2022-08-26T12:22:03.094Z,29.40
2022-08-26T12:23:03.087Z,29.40
2022-08-26T12:24:03.078Z,29.30
2022-08-26T12:25:03.122Z,29.30
2022-08-26T12:26:03.085Z,29.30
2022-08-26T12:27:03.093Z,29.30
2022-08-26T12:28:03.204Z,29.30
2022-08-26T12:29:09.412Z,29.30
2022-08-26T12:30:03.303Z,29.30
2022-08-26T12:31:03.344Z,29.30
2022-08-26T12:32:03.556Z,29.30
2022-08-26T12:33:03.448Z,29.30
2022-08-26T12:34:03.427Z,29.30
2022-08-26T12:36:03.393Z,29.30
2022-08-26T12:37:03.579Z,29.30
2022-08-26T12:38:03.620Z,29.30
2022-08-26T12:39:03.561Z,29.20
2022-08-26T12:40:02.615Z,29.20
2022-08-26T12:41:03.659Z,29.20
2022-08-26T12:42:02.700Z,29.20
2022-08-26T12:43:02.878Z,29.20
2022-08-26T12:44:02.871Z,29.20
2022-08-26T12:45:02.786Z,29.20
2022-08-26T12:46:02.907Z,29.20
2022-08-26T12:47:02.845Z,29.20
2022-08-26T12:48:02.905Z,29.20
2022-08-26T12:49:02.993Z,29.20
2022-08-26T12:50:02.932Z,29.10
2022-08-26T12:51:02.982Z,29.10
2022-08-26T12:52:02.865Z,29.10
2022-08-26T12:53:02.808Z,29.10